createdAt,value
2019-05-26T00:01:01.259Z,91.07
2019-05-26T00:05:03.407Z,90.81
2019-05-26T00:09:06.643Z,90.92
2019-05-26T00:13:08.794Z,90.64
2019-05-26T00:17:10.905Z,90.76
2019-05-26T00:21:14.790Z,90.38
2019-05-26T00:25:17.100Z,90.64
2019-05-26T00:29:19.151Z,90.64
2019-05-26T00:33:21.373Z,90.52
2019-05-26T00:37:23.496Z,90.72
2019-05-26T00:41:26.654Z,91.22
2019-05-26T00:45:28.834Z,91.23
2019-05-26T00:49:31.013Z,91.09
2019-05-26T00:53:33.108Z,91.21
2019-05-26T00:57:35.159Z,91.21
2019-05-26T01:01:37.245Z,91.00
2019-05-26T01:05:39.490Z,90.98
2019-05-26T01:09:41.628Z,91.20
2019-05-26T01:13:43.570Z,90.93
2019-05-26T01:17:45.682Z,90.71
2019-05-26T01:21:47.747Z,90.94
2019-05-26T01:25:51.055Z,90.72
2019-05-26T01:29:53.091Z,90.29
2019-05-26T01:33:55.258Z,90.33
2019-05-26T01:37:57.577Z,90.73
2019-05-26T01:41:59.682Z,90.60
2019-05-26T01:46:01.795Z,90.81
2019-05-26T01:50:04.106Z,90.14
2019-05-26T01:54:06.416Z,90.11
2019-05-26T01:58:08.833Z,89.97
2019-05-26T02:02:11.052Z,89.97
2019-05-26T02:06:13.164Z,89.43
2019-05-26T02:10:15.735Z,89.69
2019-05-26T02:14:17.809Z,89.54
2019-05-26T02:18:19.867Z,89.31
2019-05-26T02:22:21.989Z,90.07
2019-05-26T02:26:24.509Z,89.86
2019-05-26T02:30:26.732Z,88.75
2019-05-26T02:34:28.752Z,89.38
2019-05-26T02:38:30.900Z,88.65
2019-05-26T02:42:33.031Z,89.13
2019-05-26T02:46:35.248Z,88.44
2019-05-26T02:50:37.418Z,88.92
2019-05-26T02:54:39.471Z,89.49
2019-05-26T02:58:41.577Z,88.54
2019-05-26T03:02:43.946Z,88.71
2019-05-26T03:06:47.332Z,88.83
2019-05-26T03:10:51.465Z,88.98
2019-05-26T03:14:55.663Z,88.34
2019-05-26T03:18:59.700Z,88.80
2019-05-26T03:23:03.920Z,88.51
2019-05-26T03:27:06.260Z,88.67
2019-05-26T03:31:08.876Z,88.89
2019-05-26T03:35:11.650Z,88.95
2019-05-26T03:39:13.742Z,88.64
2019-05-26T03:43:15.811Z,88.85
2019-05-26T03:47:17.958Z,88.24
2019-05-26T03:51:20.131Z,88.51
2019-05-26T03:55:22.317Z,88.02
2019-05-26T03:59:24.606Z,87.30
2019-05-26T04:03:26.709Z,86.96
2019-05-26T04:07:29.055Z,87.36
2019-05-26T04:11:30.983Z,86.21
2019-05-26T04:15:33.256Z,86.31
2019-05-26T04:19:35.251Z,85.05
2019-05-26T04:23:37.419Z,85.34
2019-05-26T04:27:39.563Z,85.77
2019-05-26T04:31:41.735Z,84.71
2019-05-26T04:35:43.972Z,84.68
2019-05-26T04:39:46.094Z,85.15
2019-05-26T04:43:48.257Z,84.69
2019-05-26T04:47:50.329Z,82.95
2019-05-26T04:51:52.400Z,83.88
2019-05-26T04:55:54.544Z,83.47
2019-05-26T04:59:56.548Z,82.72
2019-05-26T05:03:58.693Z,79.44
2019-05-26T05:08:00.937Z,81.53
2019-05-26T05:12:03.020Z,82.02
2019-05-26T05:16:05.065Z,81.88
2019-05-26T05:20:07.384Z,81.27
2019-05-26T05:24:09.546Z,81.74
2019-05-26T05:28:11.639Z,80.19
2019-05-26T05:32:13.668Z,79.99
2019-05-26T05:36:15.789Z,79.97
2019-05-26T05:40:19.644Z,79.12
2019-05-26T05:44:21.904Z,79.31
2019-05-26T05:48:24.052Z,78.09
2019-05-26T05:52:27.195Z,77.64
2019-05-26T05:56:29.320Z,76.80
2019-05-26T06:00:31.425Z,76.63
2019-05-26T06:04:33.582Z,75.09
2019-05-26T06:08:35.560Z,74.66
2019-05-26T06:12:37.893Z,72.56
2019-05-26T06:16:40.024Z,72.87
2019-05-26T06:20:42.113Z,72.46
2019-05-26T06:24:44.330Z,71.11
2019-05-26T06:28:46.433Z,71.05
2019-05-26T06:32:49.609Z,67.77
2019-05-26T06:36:51.539Z,71.52
2019-05-26T06:40:53.825Z,70.05
2019-05-26T06:44:56.113Z,70.76
2019-05-26T06:48:58.301Z,68.76
2019-05-26T06:53:00.429Z,69.52
2019-05-26T06:57:02.731Z,69.72
2019-05-26T07:01:04.910Z,69.13
2019-05-26T07:05:07.499Z,69.63
2019-05-26T07:09:09.653Z,69.06
2019-05-26T07:13:11.945Z,71.45
2019-05-26T07:17:14.077Z,71.57
2019-05-26T07:21:16.271Z,71.43
2019-05-26T07:25:18.547Z,73.62
2019-05-26T07:29:20.733Z,74.14
2019-05-26T07:33:22.818Z,73.85
2019-05-26T07:37:24.938Z,76.44
2019-05-26T07:41:27.094Z,78.49
2019-05-26T07:45:29.349Z,79.71
2019-05-26T07:49:31.659Z,80.00
2019-05-26T07:53:33.811Z,80.75
2019-05-26T07:57:35.903Z,81.15
2019-05-26T08:01:38.120Z,82.50
2019-05-26T08:05:40.259Z,82.25
2019-05-26T08:09:42.540Z,82.95
2019-05-26T08:13:44.593Z,83.89
2019-05-26T08:17:46.744Z,82.73
2019-05-26T08:21:48.702Z,83.92
2019-05-26T08:25:50.770Z,84.19
2019-05-26T08:29:52.951Z,84.73
2019-05-26T08:33:55.040Z,85.02
2019-05-26T08:37:57.198Z,85.42
2019-05-26T08:41:59.586Z,84.83
2019-05-26T08:46:01.766Z,84.56
2019-05-26T08:50:04.085Z,84.33
2019-05-26T08:54:06.432Z,84.38
2019-05-26T08:58:08.717Z,83.89
2019-05-26T09:02:10.874Z,83.68
2019-05-26T09:06:12.973Z,83.03
2019-05-26T09:10:16.533Z,83.20
2019-05-26T09:14:18.812Z,82.64
2019-05-26T09:18:20.887Z,82.05
2019-05-26T09:22:22.932Z,82.77
2019-05-26T09:26:24.948Z,81.78
2019-05-26T09:30:27.156Z,82.41
2019-05-26T09:34:29.475Z,83.09
2019-05-26T09:38:31.529Z,83.35
2019-05-26T09:42:33.893Z,83.22
2019-05-26T09:46:36.883Z,82.89
2019-05-26T09:50:40.616Z,83.00
2019-05-26T09:54:43.161Z,83.02
2019-05-26T09:58:45.581Z,83.84
2019-05-26T10:02:47.784Z,84.63
2019-05-26T10:06:49.725Z,85.13
2019-05-26T10:10:51.846Z,85.96
2019-05-26T10:14:54.054Z,86.51
2019-05-26T10:18:56.202Z,86.37
2019-05-26T10:22:58.354Z,86.80
2019-05-26T10:27:00.441Z,87.41
2019-05-26T10:31:02.645Z,87.80
2019-05-26T10:35:05.233Z,88.14
2019-05-26T10:39:08.707Z,89.06
2019-05-26T10:43:10.808Z,88.64
2019-05-26T10:47:12.948Z,89.02
2019-05-26T10:51:14.962Z,88.81
2019-05-26T10:55:17.133Z,88.43
2019-05-26T10:59:19.017Z,88.88
2019-05-26T11:03:21.163Z,88.58
2019-05-26T11:07:26.665Z,88.07
2019-05-26T11:11:26.857Z,87.30
2019-05-26T11:15:28.975Z,85.13
2019-05-26T11:19:31.096Z,85.50
2019-05-26T11:23:33.200Z,84.45
2019-05-26T11:27:35.501Z,83.25
2019-05-26T11:31:37.923Z,82.45
2019-05-26T11:35:39.739Z,81.42
2019-05-26T11:39:41.714Z,82.34
2019-05-26T11:43:43.748Z,84.80
2019-05-26T11:47:45.912Z,83.31
2019-05-26T11:51:47.688Z,83.29
2019-05-26T11:55:49.879Z,84.70
2019-05-26T11:59:51.991Z,85.05
2019-05-26T12:03:55.179Z,85.57
2019-05-26T12:07:58.560Z,86.28
2019-05-26T12:12:00.693Z,85.58
2019-05-26T12:16:02.736Z,86.70
2019-05-26T12:20:05.833Z,86.30
2019-05-26T12:24:09.554Z,86.23
2019-05-26T12:28:11.807Z,87.43
2019-05-26T12:32:14.168Z,86.91
2019-05-26T12:36:16.938Z,86.74
2019-05-26T12:40:19.211Z,86.47
2019-05-26T12:44:21.493Z,86.36
2019-05-26T12:48:23.758Z,85.99
2019-05-26T12:52:26.772Z,86.27
2019-05-26T12:56:29.702Z,85.57
2019-05-26T13:00:47.378Z,86.47
2019-05-26T13:04:43.009Z,87.66
2019-05-26T13:08:47.927Z,87.37
2019-05-26T13:12:51.844Z,86.78
2019-05-26T13:16:56.453Z,87.39
2019-05-26T13:21:03.801Z,87.56
2019-05-26T13:25:11.547Z,88.28
2019-05-26T13:29:15.668Z,88.08
2019-05-26T13:33:18.834Z,87.35
2019-05-26T13:37:22.624Z,88.08
2019-05-26T13:41:28.299Z,86.95
2019-05-26T13:45:33.990Z,87.79
2019-05-26T13:49:37.172Z,86.86
2019-05-26T13:53:43.472Z,88.21
2019-05-26T13:57:52.169Z,87.87
2019-05-26T14:01:55.779Z,88.59
2019-05-26T14:06:04.011Z,87.53
2019-05-26T14:10:12.439Z,87.95
2019-05-26T14:14:20.323Z,87.90
2019-05-26T14:18:30.641Z,88.17
2019-05-26T14:22:35.066Z,87.37
2019-05-26T14:26:43.147Z,87.53
2019-05-26T14:30:48.441Z,86.52
2019-05-26T14:34:54.215Z,86.64
2019-05-26T14:38:59.325Z,86.28
2019-05-26T14:43:03.493Z,86.96
2019-05-26T14:47:06.179Z,87.06
2019-05-26T14:51:08.250Z,87.75
2019-05-26T14:55:10.551Z,87.72
2019-05-26T14:59:12.582Z,88.38
2019-05-26T15:03:14.722Z,87.10
2019-05-26T15:07:16.873Z,87.39
2019-05-26T15:11:18.873Z,87.54
2019-05-26T15:15:21.288Z,87.03
2019-05-26T15:19:23.487Z,86.96
2019-05-26T15:23:25.780Z,88.09
2019-05-26T15:27:27.894Z,88.39
2019-05-26T15:31:30.247Z,88.04
2019-05-26T15:35:32.473Z,88.54
2019-05-26T15:39:34.893Z,88.33
2019-05-26T15:43:37.021Z,88.73
2019-05-26T15:47:39.064Z,89.08
2019-05-26T15:51:41.152Z,89.23
2019-05-26T15:55:43.638Z,89.22
2019-05-26T15:59:45.787Z,88.92
2019-05-26T16:03:48.078Z,88.88
2019-05-26T16:07:50.709Z,88.96
2019-05-26T16:11:53.995Z,88.66
2019-05-26T16:15:56.080Z,89.16
2019-05-26T16:19:58.145Z,88.88
2019-05-26T16:24:00.155Z,89.48
2019-05-26T16:28:02.607Z,89.18
2019-05-26T16:32:05.028Z,89.18
2019-05-26T16:36:07.153Z,89.26
2019-05-26T16:40:09.568Z,89.05
2019-05-26T16:44:12.320Z,89.23
2019-05-26T16:48:14.447Z,90.24
2019-05-26T16:52:17.493Z,89.35
2019-05-26T16:56:19.700Z,90.03
2019-05-26T17:00:22.056Z,90.07
2019-05-26T17:04:24.273Z,90.13
2019-05-26T17:08:26.344Z,89.48
2019-05-26T17:12:28.360Z,90.00
2019-05-26T17:16:30.532Z,90.25
2019-05-26T17:20:32.681Z,90.18
2019-05-26T17:24:35.164Z,89.90
2019-05-26T17:28:37.413Z,90.54
2019-05-26T17:32:40.740Z,90.10
2019-05-26T17:36:42.881Z,90.57
2019-05-26T17:40:45.912Z,90.82
2019-05-26T17:44:48.052Z,90.81
2019-05-26T17:48:50.456Z,90.78
2019-05-26T17:52:52.679Z,91.12
2019-05-26T17:56:54.835Z,91.03
2019-05-26T18:00:56.958Z,91.66
2019-05-26T18:04:59.097Z,91.58
2019-05-26T18:09:01.202Z,91.22
2019-05-26T18:13:04.884Z,91.42
2019-05-26T18:17:07.053Z,91.20
2019-05-26T18:21:09.166Z,91.78
2019-05-26T18:25:13.520Z,91.81
2019-05-26T18:29:15.654Z,91.71
2019-05-26T18:33:17.735Z,91.82
2019-05-26T18:37:19.801Z,91.73
2019-05-26T18:41:21.912Z,92.09
2019-05-26T18:45:24.045Z,92.34
2019-05-26T18:49:26.282Z,92.25
2019-05-26T18:53:29.852Z,92.42
2019-05-26T18:57:32.152Z,92.46
2019-05-26T19:01:34.597Z,92.26
2019-05-26T19:05:38.521Z,92.64
2019-05-26T19:09:40.619Z,92.64
2019-05-26T19:13:43.030Z,92.72
2019-05-26T19:17:45.471Z,92.87
2019-05-26T19:21:47.618Z,92.89
2019-05-26T19:25:50.066Z,92.88
2019-05-26T19:29:52.056Z,92.89
2019-05-26T19:33:54.089Z,93.01
2019-05-26T19:37:56.201Z,92.97
2019-05-26T19:41:58.234Z,92.96
2019-05-26T19:46:00.417Z,92.86
2019-05-26T19:50:02.385Z,92.95
2019-05-26T19:54:04.621Z,92.76
2019-05-26T19:58:06.849Z,92.85
2019-05-26T20:02:18.401Z,92.72
2019-05-26T20:06:13.250Z,92.82
2019-05-26T20:10:15.714Z,92.71
2019-05-26T20:14:17.721Z,92.80
2019-05-26T20:18:20.072Z,92.78
2019-05-26T20:22:24.530Z,92.85
2019-05-26T20:26:26.024Z,92.78
2019-05-26T20:30:29.816Z,92.79
2019-05-26T20:34:32.234Z,92.89
2019-05-26T20:38:34.355Z,92.79
2019-05-26T20:42:36.470Z,92.95
2019-05-26T20:46:38.540Z,92.89
2019-05-26T20:50:40.648Z,92.88
2019-05-26T20:54:42.789Z,92.86
2019-05-26T20:58:44.914Z,93.14
2019-05-26T21:02:47.048Z,93.22
2019-05-26T21:06:49.280Z,93.20
2019-05-26T21:10:51.389Z,93.26
2019-05-26T21:14:53.518Z,93.35
2019-05-26T21:18:55.640Z,93.37
2019-05-26T21:22:57.799Z,93.31
2019-05-26T21:26:59.812Z,93.44
2019-05-26T21:31:01.819Z,93.45
2019-05-26T21:35:04.170Z,93.48
2019-05-26T21:39:07.936Z,93.58
2019-05-26T21:43:10.076Z,93.71
2019-05-26T21:47:12.315Z,93.65
2019-05-26T21:51:14.436Z,93.60
2019-05-26T21:55:16.538Z,93.63
2019-05-26T21:59:19.605Z,93.63
2019-05-26T22:03:21.717Z,93.64
2019-05-26T22:07:23.958Z,93.79
2019-05-26T22:11:26.176Z,93.71
2019-05-26T22:15:28.592Z,93.76
2019-05-26T22:19:30.821Z,93.75
2019-05-26T22:23:33.192Z,93.79
2019-05-26T22:27:35.638Z,93.78
2019-05-26T22:31:38.983Z,93.92
2019-05-26T22:35:41.524Z,93.92
2019-05-26T22:39:43.817Z,94.00
2019-05-26T22:43:46.155Z,93.99
2019-05-26T22:47:48.477Z,94.06
2019-05-26T22:51:50.859Z,94.09
2019-05-26T22:55:53.035Z,94.06
2019-05-26T22:59:55.371Z,94.26
2019-05-26T23:03:57.645Z,94.25
2019-05-26T23:07:59.951Z,94.28
2019-05-26T23:12:02.184Z,94.24
2019-05-26T23:16:04.785Z,94.18
2019-05-26T23:20:07.443Z,94.20
2019-05-26T23:24:09.833Z,94.01
2019-05-26T23:28:12.137Z,94.05
2019-05-26T23:32:14.259Z,94.11
2019-05-26T23:36:16.207Z,94.00
2019-05-26T23:40:18.450Z,94.06
2019-05-26T23:44:20.988Z,93.92
2019-05-26T23:48:23.117Z,93.90
2019-05-26T23:52:25.214Z,93.81
2019-05-26T23:56:27.365Z,93.86
